Time;durP1;ratioP1;P1;durP2;ratioP2;P2;SDS_P1;SDS_P2;PMS_P1;PMS_P2;Temp;Humidity;BMP_temperature;BMP_pressure;BME280_temperature;BME280_humidity;BME280_pressure;Samples;Min_cycle;Max_cycle;Signal;HPM_P1;HPM_P2
2022/07/23 00:02:22;;;;;;;2.88;2.47;;;14.40;99.90;;;;;;4936096;28;94485;-31
2022/07/23 00:04:47;;;;;;;4.03;2.92;;;14.40;99.90;;;;;;4937797;28;92540;-31
2022/07/23 00:07:13;;;;;;;2.05;1.80;;;14.40;99.90;;;;;;4934555;28;93880;-29
2022/07/23 00:09:39;;;;;;;2.53;1.90;;;14.40;99.90;;;;;;4924942;28;95182;-34
2022/07/23 00:12:05;;;;;;;2.70;2.30;;;14.40;99.90;;;;;;4969657;22;95837;-31
2022/07/23 00:14:30;;;;;;;2.90;2.22;;;14.50;99.90;;;;;;4937429;28;94510;-33
2022/07/23 00:16:56;;;;;;;6.55;2.47;;;14.40;99.90;;;;;;4937391;28;93170;-33
2022/07/23 00:19:22;;;;;;;2.88;2.55;;;14.50;99.90;;;;;;4936103;28;94686;-32
2022/07/23 00:21:47;;;;;;;2.58;2.15;;;14.50;99.90;;;;;;4936090;28;95456;-31
2022/07/23 00:24:13;;;;;;;2.80;2.35;;;14.40;99.90;;;;;;4937458;28;93433;-32
2022/07/23 00:26:38;;;;;;;3.85;2.33;;;14.50;99.90;;;;;;4936470;28;93811;-32
2022/07/23 00:29:05;;;;;;;6.60;2.50;;;14.40;99.90;;;;;;4937214;28;94138;-34
2022/07/23 00:31:30;;;;;;;2.50;2.30;;;14.40;99.90;;;;;;4936456;28;93917;-31
2022/07/23 00:33:56;;;;;;;8.43;2.38;;;14.40;99.90;;;;;;4937055;28;92191;-31
2022/07/23 00:36:23;;;;;;;7.57;2.88;;;14.40;99.90;;;;;;4936009;28;95255;-32
2022/07/23 00:38:49;;;;;;;4.13;2.20;;;14.40;99.90;;;;;;4936835;28;94874;-30
2022/07/23 00:41:15;;;;;;;3.38;2.22;;;14.30;99.90;;;;;;4936159;28;94683;-32
2022/07/23 00:43:41;;;;;;;7.20;2.55;;;14.30;99.90;;;;;;4937147;28;93481;-31
2022/07/23 00:46:06;;;;;;;4.28;3.47;;;14.30;99.90;;;;;;4936044;28;93229;-31
2022/07/23 00:48:32;;;;;;;3.58;3.28;;;14.30;99.90;;;;;;4936760;28;94235;-33
2022/07/23 00:50:58;;;;;;;3.15;2.70;;;14.20;99.90;;;;;;4936247;28;95071;-31
2022/07/23 00:53:23;;;;;;;4.72;3.20;;;14.20;99.90;;;;;;4936993;28;91765;-32
2022/07/23 00:55:49;;;;;;;4.72;3.22;;;14.10;99.90;;;;;;4939781;28;93692;-30
2022/07/23 00:58:16;;;;;;;5.05;3.40;;;14.10;99.90;;;;;;4940067;28;93420;-36
2022/07/23 01:00:42;;;;;;;3.28;2.97;;;14.10;99.90;;;;;;4939468;28;94380;-31
2022/07/23 01:03:07;;;;;;;7.50;4.25;;;14.00;99.90;;;;;;4939530;28;94288;-31
2022/07/23 01:05:33;;;;;;;4.90;4.10;;;14.00;99.90;;;;;;4925984;28;94097;-30
2022/07/23 01:07:59;;;;;;;4.43;3.40;;;14.00;99.90;;;;;;4919820;28;94783;-31
2022/07/23 01:10:31;;;;;;;7.00;4.63;;;13.90;99.90;;;;;;4923430;28;94996;-33
2022/07/23 01:13:08;;;;;;;5.45;4.13;;;13.90;99.90;;;;;;4939941;28;93431;-31
2022/07/23 01:15:35;;;;;;;5.68;4.28;;;13.80;99.90;;;;;;4927691;28;94303;-31
2022/07/23 01:18:01;;;;;;;4.07;3.28;;;13.80;99.90;;;;;;4940034;28;94132;-32
2022/07/23 01:20:26;;;;;;;4.88;4.28;;;13.80;99.90;;;;;;4938583;28;93919;-33
2022/07/23 01:22:53;;;;;;;5.25;4.32;;;13.70;99.90;;;;;;4928701;28;94632;-36
2022/07/23 01:25:20;;;;;;;5.07;4.13;;;13.70;99.90;;;;;;4936772;28;93071;-31
2022/07/23 01:27:45;;;;;;;3.83;3.45;;;13.70;99.90;;;;;;4939283;28;94895;-33
2022/07/23 01:30:12;;;;;;;3.72;3.10;;;13.70;99.90;;;;;;4938783;28;94084;-32
2022/07/23 01:32:38;;;;;;;4.47;3.67;;;13.70;99.90;;;;;;4940094;28;93792;-30
2022/07/23 01:35:05;;;;;;;4.38;3.83;;;13.60;99.90;;;;;;4940956;28;93124;-32
2022/07/23 01:37:30;;;;;;;4.97;3.20;;;13.60;99.90;;;;;;4926176;28;95003;-33
2022/07/23 01:39:56;;;;;;;4.40;3.78;;;13.60;99.90;;;;;;4929133;28;94524;-30
2022/07/23 01:42:21;;;;;;;3.78;3.00;;;13.50;99.90;;;;;;4938588;28;93346;-31
2022/07/23 01:44:47;;;;;;;3.80;3.40;;;13.50;99.90;;;;;;4938944;28;93701;-33
2022/07/23 01:47:13;;;;;;;5.40;2.72;;;13.40;99.90;;;;;;4938546;28;94788;-30
2022/07/23 01:49:38;;;;;;;7.50;3.05;;;13.40;99.90;;;;;;4939142;28;94845;-33
2022/07/23 01:52:08;;;;;;;3.55;3.17;;;13.40;99.90;;;;;;4938333;28;93449;-33
2022/07/23 01:54:34;;;;;;;3.92;3.58;;;13.30;99.90;;;;;;4939016;28;95086;-32
2022/07/23 01:57:01;;;;;;;3.85;3.45;;;13.30;99.90;;;;;;4939416;28;94915;-34
2022/07/23 01:59:27;;;;;;;4.30;2.75;;;13.30;99.90;;;;;;4938576;28;94611;-32
2022/07/23 02:01:53;;;;;;;4.22;3.85;;;13.20;99.90;;;;;;4938408;28;94237;-35
2022/07/23 02:04:20;;;;;;;5.00;3.05;;;13.30;99.90;;;;;;4939177;28;92554;-33
2022/07/23 02:06:46;;;;;;;3.75;3.22;;;13.20;99.90;;;;;;4939543;28;95498;-30
2022/07/23 02:09:12;;;;;;;4.65;3.70;;;13.20;99.90;;;;;;4937711;28;93705;-33
2022/07/23 02:11:37;;;;;;;3.60;3.25;;;13.10;99.90;;;;;;4938685;28;92240;-31
2022/07/23 02:14:03;;;;;;;3.90;3.55;;;13.10;99.90;;;;;;4927188;28;95171;-31
2022/07/23 02:16:29;;;;;;;4.40;3.10;;;13.10;99.90;;;;;;4936209;28;94554;-35
2022/07/23 02:18:55;;;;;;;4.25;3.63;;;13.10;99.90;;;;;;4938456;28;94545;-31
2022/07/23 02:21:20;;;;;;;4.20;2.97;;;13.00;99.90;;;;;;4937614;28;93170;-31
2022/07/23 02:23:46;;;;;;;4.25;3.85;;;13.00;99.90;;;;;;4938650;28;92793;-34
2022/07/23 02:26:11;;;;;;;5.82;2.90;;;13.00;99.90;;;;;;4938118;28;94864;-32
2022/07/23 02:28:37;;;;;;;3.80;3.33;;;13.00;99.90;;;;;;4939025;28;94866;-34
2022/07/23 02:31:03;;;;;;;3.38;3.08;;;13.00;99.90;;;;;;4938030;28;93445;-33
2022/07/23 02:33:29;;;;;;;9.52;5.57;;;12.90;99.90;;;;;;4938023;28;92094;-31
2022/07/23 02:35:55;;;;;;;4.03;3.63;;;12.90;99.90;;;;;;4938164;28;94516;-29
2022/07/23 02:38:21;;;;;;;4.40;4.00;;;12.90;99.90;;;;;;4937026;28;93551;-30
2022/07/23 02:40:46;;;;;;;4.55;3.42;;;12.90;99.90;;;;;;4938897;28;94385;-33
2022/07/23 02:43:12;;;;;;;11.32;3.72;;;12.90;99.90;;;;;;4936983;28;92633;-34
2022/07/23 02:45:37;;;;;;;5.47;3.58;;;12.80;99.90;;;;;;4938132;28;94288;-34
2022/07/23 02:48:03;;;;;;;3.85;3.55;;;12.80;99.90;;;;;;4937962;28;94527;-32
2022/07/23 02:50:29;;;;;;;4.22;3.65;;;12.70;99.90;;;;;;4937799;28;95182;-31
2022/07/23 02:52:54;;;;;;;3.45;2.70;;;12.70;99.90;;;;;;4938909;28;92916;-31
2022/07/23 02:55:20;;;;;;;3.50;3.20;;;12.70;99.90;;;;;;4937821;28;94400;-30
2022/07/23 02:57:45;;;;;;;4.43;4.03;;;12.70;99.90;;;;;;4938398;28;95207;-32
2022/07/23 03:00:12;;;;;;;3.67;3.38;;;12.70;99.90;;;;;;4937537;28;93039;-34
2022/07/23 03:02:37;;;;;;;3.65;2.67;;;12.60;99.90;;;;;;4937160;28;94101;-31
2022/07/23 03:05:03;;;;;;;5.90;3.35;;;12.60;99.90;;;;;;4938277;28;94814;-32
2022/07/23 03:07:29;;;;;;;5.15;4.03;;;12.60;99.90;;;;;;4937089;28;93899;-30
2022/07/23 03:09:54;;;;;;;4.32;3.63;;;12.50;99.90;;;;;;4937943;28;93297;-30
2022/07/23 03:12:20;;;;;;;4.10;3.70;;;12.50;99.90;;;;;;4937073;28;94849;-31
2022/07/23 03:14:46;;;;;;;3.53;3.22;;;12.50;99.90;;;;;;4924132;28;94655;-29
2022/07/23 03:17:11;;;;;;;3.30;3.00;;;12.50;99.90;;;;;;4936608;28;94377;-32
2022/07/23 03:19:38;;;;;;;3.65;2.75;;;12.40;99.90;;;;;;4938259;28;91384;-30
2022/07/23 03:22:04;;;;;;;4.82;3.38;;;12.40;99.90;;;;;;4937207;28;93757;-33
2022/07/23 03:27:13;;;;;;;7.05;3.70;;;12.40;99.90;;;;;;4937301;28;94659;-34
2022/07/23 03:29:39;;;;;;;3.95;3.65;;;12.30;99.90;;;;;;4938037;28;93548;-31
2022/07/23 03:32:05;;;;;;;3.85;3.50;;;12.30;99.90;;;;;;4937229;28;92621;-32
2022/07/23 03:34:30;;;;;;;6.80;4.50;;;12.30;99.90;;;;;;4937251;28;95184;-30
2022/07/23 03:36:56;;;;;;;4.95;3.63;;;12.30;99.90;;;;;;4936435;28;94473;-31
2022/07/23 03:39:21;;;;;;;6.22;3.20;;;12.30;99.90;;;;;;4937896;28;92176;-31
2022/07/23 03:41:47;;;;;;;7.88;4.28;;;12.30;99.90;;;;;;4936990;28;93633;-33
2022/07/23 03:44:12;;;;;;;4.20;3.65;;;12.30;99.90;;;;;;4937445;28;94211;-31
2022/07/23 03:46:38;;;;;;;5.15;3.80;;;12.30;99.90;;;;;;4937078;28;95798;-33
2022/07/23 03:49:03;;;;;;;4.72;4.30;;;12.30;99.90;;;;;;4936922;28;93599;-32
2022/07/23 03:51:29;;;;;;;4.90;4.25;;;12.30;99.90;;;;;;4937297;28;94019;-31
2022/07/23 03:53:55;;;;;;;5.20;3.92;;;12.20;99.90;;;;;;4936917;28;94779;-31
2022/07/23 03:56:21;;;;;;;4.28;3.88;;;12.30;99.90;;;;;;4936802;28;94445;-32
2022/07/23 03:58:47;;;;;;;10.40;4.13;;;12.30;99.90;;;;;;4936934;28;93822;-30
2022/07/23 04:01:12;;;;;;;4.10;3.75;;;12.30;99.90;;;;;;4936674;28;94169;-35
2022/07/23 04:03:38;;;;;;;6.75;3.55;;;12.20;99.90;;;;;;4936706;28;95014;-30
2022/07/23 04:06:04;;;;;;;2.92;2.70;;;12.30;99.90;;;;;;4936279;28;94337;-32
2022/07/23 04:08:30;;;;;;;4.82;3.72;;;12.30;99.90;;;;;;4938377;28;92294;-32
2022/07/23 04:10:55;;;;;;;7.10;4.35;;;12.30;99.90;;;;;;4936008;28;93128;-32
2022/07/23 04:13:21;;;;;;;3.85;3.55;;;12.20;99.90;;;;;;4931489;28;95155;-32
2022/07/23 04:15:47;;;;;;;4.80;2.97;;;12.20;99.90;;;;;;4928287;28;95335;-29
2022/07/23 04:18:12;;;;;;;3.85;3.10;;;12.20;99.90;;;;;;4937051;28;92749;-32
2022/07/23 04:20:38;;;;;;;4.68;3.50;;;12.20;99.90;;;;;;4937467;28;92510;-29
2022/07/23 04:23:03;;;;;;;5.88;4.00;;;12.20;99.90;;;;;;4935651;28;95124;-32
2022/07/23 04:25:29;;;;;;;5.40;3.97;;;12.30;99.90;;;;;;4936430;28;94612;-34
2022/07/23 04:27:54;;;;;;;4.22;3.55;;;12.40;99.90;;;;;;4937703;28;93379;-34
2022/07/23 04:30:20;;;;;;;4.32;2.88;;;12.40;99.90;;;;;;4939939;28;92771;-30
2022/07/23 04:32:46;;;;;;;4.13;3.30;;;12.40;99.90;;;;;;4940403;28;95187;-30
2022/07/23 04:35:11;;;;;;;5.30;3.17;;;12.50;99.90;;;;;;4939973;28;94537;-32
2022/07/23 04:37:37;;;;;;;7.97;3.60;;;12.60;99.90;;;;;;4940177;28;93333;-32
2022/07/23 04:40:03;;;;;;;3.95;3.55;;;12.70;99.90;;;;;;4939060;28;94325;-35
2022/07/23 04:42:28;;;;;;;3.53;3.13;;;12.90;99.90;;;;;;4939976;28;94888;-31
2022/07/23 04:44:54;;;;;;;4.25;3.55;;;13.00;99.90;;;;;;4939852;28;94753;-30
2022/07/23 04:47:19;;;;;;;4.45;3.85;;;13.10;99.90;;;;;;4939876;28;93117;-33
2022/07/23 04:49:45;;;;;;;6.90;3.38;;;13.30;99.90;;;;;;4940255;28;93040;-30
2022/07/23 04:52:11;;;;;;;5.43;3.95;;;13.50;99.90;;;;;;4938571;28;94386;-29
2022/07/23 04:54:36;;;;;;;5.07;3.15;;;13.70;99.90;;;;;;4939895;28;94611;-31
2022/07/23 04:57:02;;;;;;;4.13;3.78;;;13.90;99.90;;;;;;4940198;28;91837;-31
2022/07/23 04:59:27;;;;;;;3.55;3.25;;;14.00;99.90;;;;;;4939921;28;93492;-33
2022/07/23 05:01:53;;;;;;;4.15;3.72;;;14.30;99.90;;;;;;4939167;28;95459;-31
2022/07/23 05:04:19;;;;;;;4.20;3.80;;;14.40;99.90;;;;;;4938777;28;95179;-31
2022/07/23 05:06:44;;;;;;;5.97;3.42;;;14.60;99.90;;;;;;4939918;28;93161;-31
2022/07/23 05:09:10;;;;;;;18.90;3.65;;;14.70;99.90;;;;;;4939496;28;93132;-31
2022/07/23 05:11:35;;;;;;;3.15;2.85;;;14.90;99.90;;;;;;4938944;28;94783;-32
2022/07/23 05:14:01;;;;;;;3.33;3.00;;;15.10;99.90;;;;;;4939241;28;94640;-30
2022/07/23 05:16:26;;;;;;;8.85;4.28;;;15.30;99.90;;;;;;4939660;28;92239;-31
2022/07/23 05:18:53;;;;;;;2.85;2.65;;;15.40;99.90;;;;;;4939296;28;92962;-33
2022/07/23 05:21:19;;;;;;;5.22;2.72;;;15.40;99.90;;;;;;4938817;28;94800;-31
2022/07/23 05:23:45;;;;;;;2.28;2.08;;;15.40;99.90;;;;;;4939097;28;94882;-32
2022/07/23 05:26:10;;;;;;;9.70;3.47;;;15.40;99.90;;;;;;4938663;28;93926;-34
2022/07/23 05:28:36;;;;;;;3.20;2.25;;;15.50;99.90;;;;;;4939342;28;95873;-31
2022/07/23 05:31:03;;;;;;;7.00;3.30;;;15.60;99.90;;;;;;4939302;28;94311;-31
2022/07/23 05:33:30;;;;;;;5.45;3.55;;;15.70;99.90;;;;;;4938690;28;94451;-30
2022/07/23 05:36:01;;;;;;;2.80;2.60;;;15.80;99.90;;;;;;4940072;28;93246;-35
2022/07/23 05:38:27;;;;;;;2.05;1.85;;;16.00;99.90;;;;;;4939070;28;94744;-31
2022/07/23 05:40:52;;;;;;;3.15;2.67;;;16.00;99.90;;;;;;4938624;28;94366;-32
2022/07/23 05:43:18;;;;;;;2.83;2.63;;;16.00;99.90;;;;;;4938969;28;94023;-36
2022/07/23 05:45:43;;;;;;;5.07;3.25;;;16.00;99.90;;;;;;4926218;28;91363;-33
2022/07/23 05:48:09;;;;;;;3.28;2.53;;;16.10;99.90;;;;;;4936791;28;94328;-31
2022/07/23 05:50:35;;;;;;;4.68;2.60;;;16.20;99.90;;;;;;4936469;28;95085;-35
2022/07/23 05:53:00;;;;;;;2.53;1.88;;;16.20;99.90;;;;;;4923467;28;94620;-31
2022/07/23 05:55:28;;;;;;;3.90;2.55;;;16.30;99.90;;;;;;4926959;28;92416;-30
2022/07/23 05:57:55;;;;;;;;;;;16.40;99.90;;;;;;4919824;28;94957;-32
2022/07/23 06:00:20;;;;;;;5.10;2.40;;;16.50;99.90;;;;;;4925374;28;96737;-33
2022/07/23 06:02:46;;;;;;;2.75;2.00;;;16.60;99.90;;;;;;4937040;28;94850;-33
2022/07/23 06:05:12;;;;;;;2.10;1.83;;;16.70;99.90;;;;;;4930176;28;93237;-31
2022/07/23 06:07:37;;;;;;;1.92;1.75;;;16.90;99.90;;;;;;4938864;28;92573;-33
2022/07/23 06:10:04;;;;;;;2.05;1.95;;;17.00;99.90;;;;;;4933972;28;94142;-32
2022/07/23 06:12:29;;;;;;;3.17;2.30;;;17.10;99.90;;;;;;4928564;28;93908;-31
2022/07/23 06:14:55;;;;;;;2.80;1.85;;;17.30;99.90;;;;;;4924686;28;93990;-34
2022/07/23 06:17:21;;;;;;;2.28;2.08;;;17.40;99.90;;;;;;4921652;28;95322;-34
2022/07/23 06:19:46;;;;;;;1.55;1.45;;;17.60;99.90;;;;;;4918807;28;94538;-32
2022/07/23 06:22:12;;;;;;;2.08;1.88;;;17.80;99.90;;;;;;4922133;28;94504;-32
2022/07/23 06:24:37;;;;;;;4.65;2.25;;;17.80;99.90;;;;;;4937088;28;92803;-33
2022/07/23 06:27:04;;;;;;;2.40;1.98;;;18.00;99.90;;;;;;4930513;28;93279;-32
2022/07/23 06:29:30;;;;;;;2.03;1.80;;;18.10;99.90;;;;;;4931321;28;94673;-31
2022/07/23 06:31:55;;;;;;;2.08;1.73;;;18.20;99.90;;;;;;4931133;28;94215;-33
2022/07/23 06:34:21;;;;;;;1.95;1.73;;;18.40;99.90;;;;;;4942148;28;91367;-30
2022/07/23 06:36:46;;;;;;;1.90;1.52;;;18.60;99.90;;;;;;4936981;28;94519;-32
2022/07/23 06:39:12;;;;;;;1.98;1.42;;;18.60;99.90;;;;;;4939008;28;94870;-33
2022/07/23 06:41:38;;;;;;;6.20;1.90;;;18.80;99.90;;;;;;4942604;28;95337;-30
2022/07/23 06:44:04;;;;;;;2.95;1.90;;;18.90;99.90;;;;;;4929754;28;92511;-33
2022/07/23 06:46:29;;;;;;;2.92;1.98;;;19.00;99.90;;;;;;4936341;28;93070;-30
2022/07/23 06:48:55;;;;;;;2.05;1.70;;;19.10;99.90;;;;;;4930458;28;94791;-32
2022/07/23 06:51:21;;;;;;;2.08;1.35;;;19.20;99.90;;;;;;4945621;28;94435;-32
2022/07/23 06:53:46;;;;;;;3.80;1.63;;;19.30;99.90;;;;;;4949691;28;93088;-31
2022/07/23 06:56:12;;;;;;;2.92;1.75;;;19.40;99.90;;;;;;4947226;28;92409;-31
2022/07/23 06:58:38;;;;;;;1.77;1.23;;;19.50;99.90;;;;;;4940581;28;93998;-33
2022/07/23 07:01:03;;;;;;;1.85;1.75;;;19.60;99.90;;;;;;4925470;28;96359;-34
2022/07/23 07:03:29;;;;;;;1.48;1.38;;;19.70;99.90;;;;;;4952400;28;92492;-31
2022/07/23 07:05:57;;;;;;;1.10;1.05;;;19.90;99.90;;;;;;4940583;28;93901;-32
2022/07/23 07:08:23;;;;;;;3.13;1.98;;;20.10;99.90;;;;;;4926713;28;94962;-32
2022/07/23 07:10:48;;;;;;;1.67;1.30;;;20.30;99.90;;;;;;4921099;28;94837;-32
2022/07/23 07:13:14;;;;;;;2.30;1.20;;;20.40;99.90;;;;;;4922302;28;93481;-33
2022/07/23 07:15:39;;;;;;;2.13;1.30;;;20.40;99.90;;;;;;4920910;28;92827;-33
2022/07/23 07:18:05;;;;;;;4.07;2.15;;;20.40;99.90;;;;;;4927067;28;94499;-32
2022/07/23 07:20:30;;;;;;;2.30;1.23;;;20.50;99.90;;;;;;4948717;28;94766;-31
2022/07/23 07:22:56;;;;;;;3.13;1.27;;;20.60;99.90;;;;;;4948457;28;92580;-32
2022/07/23 07:25:22;;;;;;;2.80;1.20;;;20.50;99.90;;;;;;4944585;28;92671;-31
2022/07/23 07:27:47;;;;;;;2.88;1.38;;;20.50;99.90;;;;;;4948155;28;94718;-33
2022/07/23 07:30:13;;;;;;;3.45;1.58;;;20.50;99.90;;;;;;4947642;28;94354;-33
2022/07/23 07:32:39;;;;;;;1.48;1.20;;;20.50;99.90;;;;;;4948825;28;92179;-31
2022/07/23 07:35:06;;;;;;;1.45;1.25;;;20.50;99.90;;;;;;4939648;28;92610;-35
2022/07/23 07:37:31;;;;;;;1.73;1.55;;;20.80;99.90;;;;;;4931282;28;94702;-33
2022/07/23 07:39:57;;;;;;;1.33;1.00;;;20.80;99.90;;;;;;4940251;28;94611;-32
2022/07/23 07:42:22;;;;;;;2.13;1.52;;;20.90;99.90;;;;;;4936305;28;94356;-32
2022/07/23 07:44:48;;;;;;;3.25;1.10;;;21.10;99.90;;;;;;4946703;28;92976;-32
2022/07/23 07:47:15;;;;;;;1.38;1.00;;;21.30;99.90;;;;;;4931277;28;93954;-32
2022/07/23 07:49:41;;;;;;;2.28;1.00;;;21.50;99.90;;;;;;4947615;28;94161;-36
2022/07/23 07:52:07;;;;;;;2.67;0.93;;;21.50;99.90;;;;;;4947033;28;92530;-32
2022/07/23 07:54:32;;;;;;;1.30;1.20;;;21.30;99.90;;;;;;4946982;28;94055;-32
2022/07/23 07:56:58;;;;;;;1.85;0.82;;;21.00;99.90;;;;;;4930758;28;94654;-31
2022/07/23 07:59:24;;;;;;;2.17;1.08;;;20.90;99.90;;;;;;4947498;28;94717;-33
2022/07/23 08:01:49;;;;;;;1.52;0.98;;;20.90;99.90;;;;;;4948338;28;92989;-32
2022/07/23 08:04:15;;;;;;;1.95;1.08;;;21.00;99.90;;;;;;4946915;28;92181;-32
2022/07/23 08:06:40;;;;;;;1.48;1.38;;;21.10;99.90;;;;;;4946154;28;95122;-31
2022/07/23 08:09:06;;;;;;;1.25;1.15;;;20.90;99.90;;;;;;4947181;28;93356;-31
2022/07/23 08:11:32;;;;;;;1.35;1.13;;;20.90;99.90;;;;;;4948595;28;91489;-33
2022/07/23 08:13:57;;;;;;;1.45;1.27;;;21.10;99.90;;;;;;4948380;28;92620;-32
2022/07/23 08:16:23;;;;;;;1.77;1.33;;;21.10;99.90;;;;;;4947596;28;94617;-32
2022/07/23 08:18:48;;;;;;;2.38;0.80;;;21.10;99.90;;;;;;4947563;28;94989;-31
2022/07/23 08:21:14;;;;;;;1.67;1.20;;;21.10;99.90;;;;;;4948354;28;93163;-32
2022/07/23 08:23:39;;;;;;;0.85;0.85;;;21.20;99.90;;;;;;4947611;28;93396;-34
2022/07/23 08:26:05;;;;;;;2.42;1.08;;;21.30;99.90;;;;;;4947461;28;94781;-31
2022/07/23 08:28:33;;;;;;;3.17;0.93;;;21.60;99.90;;;;;;4948406;28;94517;-31
2022/07/23 08:31:00;;;;;;;1.10;1.00;;;21.80;99.90;;;;;;4937486;28;92293;-31
2022/07/23 08:33:26;;;;;;;5.05;0.93;;;21.90;99.90;;;;;;4922057;28;92137;-32
2022/07/23 08:35:52;;;;;;;1.27;0.63;;;21.80;99.90;;;;;;4933031;28;93821;-34
2022/07/23 08:38:22;;;;;;;2.25;0.65;;;21.60;99.90;;;;;;4946119;28;93975;-32
2022/07/23 08:40:51;;;;;;;1.73;0.90;;;21.40;99.90;;;;;;4936128;28;92159;-34
2022/07/23 08:43:25;;;;;;;1.55;1.10;;;21.20;99.90;;;;;;4946105;28;94403;-31
2022/07/23 08:45:56;;;;;;;0.90;0.90;;;21.10;99.90;;;;;;4948287;28;94692;-30
2022/07/23 08:48:23;;;;;;;0.88;0.88;;;21.00;99.90;;;;;;4933601;28;94489;-31
2022/07/23 08:50:55;;;;;;;1.20;1.10;;;20.90;99.90;;;;;;4947996;28;92481;-32
2022/07/23 08:53:23;;;;;;;1.05;1.00;;;20.80;99.90;;;;;;4947794;28;92210;-31
2022/07/23 08:55:51;;;;;;;0.85;0.73;;;20.80;99.90;;;;;;4947289;28;94253;-31
2022/07/23 08:58:17;;;;;;;1.58;0.90;;;20.80;99.90;;;;;;4946944;28;94865;-32
2022/07/23 09:00:44;;;;;;;2.05;0.90;;;21.10;99.90;;;;;;4947900;28;93561;-32
2022/07/23 09:03:21;;;;;;;0.50;0.50;;;21.30;99.90;;;;;;4947099;28;94029;-34
2022/07/23 09:05:48;;;;;;;1.50;1.17;;;21.50;99.90;;;;;;4921817;28;95136;-32
2022/07/23 09:08:16;;;;;;;1.27;1.17;;;21.70;99.90;;;;;;4934190;28;94138;-35
2022/07/23 09:10:57;;;;;;;0.98;0.65;;;22.10;99.90;;;;;;4936804;28;94189;-33
2022/07/23 09:13:49;;;;;;;0.82;0.75;;;22.20;99.90;;;;;;4936425;28;94270;-32
2022/07/23 09:16:19;;;;;;;1.80;0.90;;;22.20;99.90;;;;;;4942318;28;94900;-33
2022/07/23 09:18:50;;;;;;;0.45;0.45;;;22.00;99.90;;;;;;4951307;28;94637;-31
2022/07/23 09:21:30;;;;;;;0.70;0.70;;;21.90;99.90;;;;;;4945828;28;92529;-32
2022/07/23 09:24:00;;;;;;;1.60;0.88;;;21.40;99.90;;;;;;4939349;28;93076;-33
2022/07/23 09:26:40;;;;;;;0.85;0.85;;;21.00;99.90;;;;;;4937245;28;94088;-30
2022/07/23 09:29:05;;;;;;;1.17;1.05;;;20.90;99.90;;;;;;4930499;28;93712;-33
2022/07/23 09:31:44;;;;;;;1.60;0.70;;;21.10;99.90;;;;;;4942834;28;92276;-31
2022/07/23 09:34:19;;;;;;;1.95;1.17;;;21.40;99.90;;;;;;4938490;28;93589;-32
2022/07/23 09:36:46;;;;;;;0.93;0.93;;;21.80;99.90;;;;;;4950845;28;94868;-33
2022/07/23 09:39:13;;;;;;;1.77;0.80;;;21.80;99.90;;;;;;4937356;28;94164;-34
2022/07/23 09:41:44;;;;;;;1.75;0.73;;;21.70;99.90;;;;;;4948839;28;92155;-31
2022/07/23 09:44:21;;;;;;;0.88;0.88;;;21.60;99.90;;;;;;4951185;28;93276;-33
2022/07/23 09:46:49;;;;;;;0.73;0.65;;;21.40;99.90;;;;;;4949252;28;95188;-32
2022/07/23 09:49:23;;;;;;;1.73;0.95;;;21.50;99.90;;;;;;4950584;28;93065;-32
2022/07/23 09:51:57;;;;;;;2.65;0.82;;;21.80;99.90;;;;;;4951060;28;91499;-33
2022/07/23 09:54:37;;;;;;;0.60;0.60;;;22.10;99.90;;;;;;4949463;28;92484;-32
2022/07/23 09:57:13;;;;;;;1.40;0.73;;;22.30;99.90;;;;;;4949947;28;94855;-36
2022/07/23 09:59:39;;;;;;;0.60;0.60;;;22.50;99.90;;;;;;4949992;28;93125;-32
2022/07/23 10:02:08;;;;;;;0.75;0.60;;;22.30;99.90;;;;;;4950167;28;93045;-32
2022/07/23 10:04:34;;;;;;;0.93;0.88;;;22.00;99.90;;;;;;4950475;28;92473;-33
2022/07/23 10:07:04;;;;;;;1.67;0.90;;;21.80;99.90;;;;;;4949843;28;95073;-33
2022/07/23 10:09:32;;;;;;;8.90;1.25;;;21.70;99.90;;;;;;4950157;28;94867;-33
2022/07/23 10:12:05;;;;;;;0.68;0.68;;;21.50;99.90;;;;;;4950240;28;93387;-32
2022/07/23 10:14:33;;;;;;;1.05;0.95;;;21.60;99.90;;;;;;4950381;28;93036;-34
2022/07/23 10:17:00;;;;;;;;;;;21.90;99.90;;;;;;4950841;28;93847;-34
2022/07/23 10:19:25;;;;;;;1.27;1.17;;;22.20;99.90;;;;;;4951418;28;93410;-31
2022/07/23 10:21:56;;;;;;;0.70;0.70;;;22.40;99.90;;;;;;4950717;28;93101;-34
2022/07/23 10:24:29;;;;;;;0.93;0.93;;;22.60;99.90;;;;;;4949656;28;95044;-31
2022/07/23 10:27:30;;;;;;;0.93;0.80;;;22.70;99.90;;;;;;4949800;28;94773;-34
2022/07/23 10:30:04;;;;;;;0.70;0.68;;;22.40;99.90;;;;;;4931825;28;94451;-33
2022/07/23 10:33:07;;;;;;;0.65;0.60;;;22.30;99.90;;;;;;4930229;28;92677;-32
2022/07/23 10:35:41;;;;;;;1.42;1.02;;;22.50;99.90;;;;;;4939930;28;92127;-32
2022/07/23 10:38:24;;;;;;;1.10;1.00;;;22.50;99.90;;;;;;4946904;28;94618;-34
2022/07/23 10:41:03;;;;;;;1.58;0.88;;;22.40;99.90;;;;;;4940233;28;94760;-32
2022/07/23 10:43:29;;;;;;;3.63;1.10;;;22.30;99.90;;;;;;4950043;28;91403;-32
2022/07/23 10:45:56;;;;;;;1.30;0.93;;;22.30;99.90;;;;;;4949841;28;93379;-34
2022/07/23 10:48:29;;;;;;;4.03;1.10;;;22.40;99.90;;;;;;4931591;28;95473;-34
2022/07/23 10:51:10;;;;;;;1.98;1.02;;;22.70;99.90;;;;;;4949106;28;94553;-34
2022/07/23 10:53:51;;;;;;;1.05;1.05;;;22.60;99.90;;;;;;4949247;28;93305;-32
2022/07/23 10:56:54;;;;;;;2.35;2.15;;;22.40;99.90;;;;;;4946031;28;93194;-31
2022/07/23 10:59:20;;;;;;;1.33;0.82;;;22.20;99.90;;;;;;4931969;28;95094;-33
2022/07/23 11:01:46;;;;;;;1.67;1.10;;;22.20;99.90;;;;;;4942902;28;94626;-34
2022/07/23 11:04:13;;;;;;;2.97;1.23;;;22.30;99.90;;;;;;4945308;28;93718;-33
2022/07/23 11:06:50;;;;;;;1.98;1.10;;;22.30;99.90;;;;;;4948549;28;92234;-32
2022/07/23 11:09:39;;;;;;;1.15;1.15;;;22.40;99.90;;;;;;4948815;28;92754;-32
2022/07/23 11:12:14;;;;;;;0.98;0.98;;;22.50;99.90;;;;;;4933847;28;96013;-32
2022/07/23 11:14:57;;;;;;;1.20;1.10;;;22.60;99.90;;;;;;4909664;28;92576;-32
2022/07/23 11:17:27;;;;;;;1.00;1.00;;;22.60;99.90;;;;;;4919522;28;94672;-33
2022/07/23 11:20:11;;;;;;;1.77;1.42;;;22.60;99.90;;;;;;4911387;28;95035;-33
2022/07/23 11:22:46;;;;;;;1.05;0.82;;;22.80;99.90;;;;;;4911914;28;94464;-32
2022/07/23 11:25:21;;;;;;;1.02;1.02;;;22.80;99.90;;;;;;4909526;28;92649;-33
2022/07/23 11:27:48;;;;;;;1.45;1.35;;;22.70;99.90;;;;;;4920528;28;93694;-36
2022/07/23 11:30:26;;;;;;;1.17;0.90;;;22.70;99.90;;;;;;4928590;28;94624;-31
2022/07/23 11:33:07;;;;;;;2.15;1.50;;;22.60;99.90;;;;;;4928507;28;94335;-33
2022/07/23 11:35:36;;;;;;;1.60;1.10;;;22.70;99.90;;;;;;4929968;28;92055;-32
2022/07/23 11:38:21;;;;;;;1.63;1.13;;;22.80;99.90;;;;;;4926081;28;93035;-32
2022/07/23 11:40:53;;;;;;;1.40;1.30;;;22.70;99.90;;;;;;4920586;28;96462;-34
2022/07/23 11:43:20;;;;;;;1.35;1.25;;;22.60;99.90;;;;;;4928178;28;94638;-35
2022/07/23 11:45:56;;;;;;;1.30;1.20;;;22.60;99.90;;;;;;4928933;28;93032;-34
2022/07/23 11:48:30;;;;;;;1.65;1.55;;;22.60;99.90;;;;;;4928626;28;93534;-32
2022/07/23 11:50:57;;;;;;;1.20;1.08;;;22.60;99.90;;;;;;4929255;28;95584;-32
2022/07/23 11:53:23;;;;;;;1.50;1.40;;;22.70;99.90;;;;;;4929028;28;94638;-31
2022/07/23 11:55:49;;;;;;;1.95;1.73;;;22.90;99.90;;;;;;4929183;28;93428;-32
2022/07/23 11:58:15;;;;;;;1.65;1.55;;;23.00;99.90;;;;;;4928133;28;92638;-33
2022/07/23 12:00:41;;;;;;;2.33;1.73;;;23.20;99.90;;;;;;4925595;28;93997;-32
2022/07/23 12:03:07;;;;;;;1.58;1.48;;;23.20;99.90;;;;;;4907832;28;94256;-33
2022/07/23 12:05:37;;;;;;;1.65;1.55;;;23.10;99.90;;;;;;4927612;28;92186;-33
2022/07/23 12:08:06;;;;;;;1.77;1.67;;;23.30;99.90;;;;;;4928986;28;93515;-33
2022/07/23 12:13:31;;;;;;;2.90;1.83;;;23.00;99.90;;;;;;4812193;29;93181;-34
2022/07/23 12:15:58;;;;;;;3.17;1.63;;;22.90;99.90;;;;;;4814765;29;92992;-31
2022/07/23 12:18:26;;;;;;;1.30;1.20;;;22.90;99.90;;;;;;4813209;29;93473;-34
2022/07/23 12:20:54;;;;;;;3.20;1.75;;;22.90;99.90;;;;;;4809734;29;95017;-34
2022/07/23 12:23:22;;;;;;;1.45;1.35;;;22.90;99.90;;;;;;4804858;29;95001;-33
2022/07/23 12:25:49;;;;;;;2.38;2.17;;;22.90;99.90;;;;;;4804313;29;92489;-32
2022/07/23 12:28:28;;;;;;;3.58;1.67;;;22.70;99.90;;;;;;4801476;29;92725;-33
2022/07/23 12:30:55;;;;;;;2.33;1.63;;;22.70;99.90;;;;;;4802314;29;94842;-33
2022/07/23 12:33:26;;;;;;;2.15;2.00;;;22.60;99.90;;;;;;4803159;29;94763;-33
2022/07/23 12:35:54;;;;;;;1.63;1.52;;;22.60;99.90;;;;;;4805266;29;93744;-34
2022/07/23 12:38:21;;;;;;;2.75;1.85;;;22.50;99.90;;;;;;4792362;29;93380;-34
2022/07/23 12:40:53;;;;;;;3.60;1.88;;;22.50;99.90;;;;;;4803917;29;96100;-34
2022/07/23 12:43:35;;;;;;;2.58;2.38;;;22.40;99.90;;;;;;4804555;29;94887;-34
2022/07/23 12:46:14;;;;;;;3.28;1.80;;;22.50;99.90;;;;;;4807953;29;93207;-33
2022/07/23 12:48:51;;;;;;;1.63;1.52;;;22.50;99.90;;;;;;4807097;29;92777;-34
2022/07/23 12:51:39;;;;;;;4.22;1.70;;;22.60;99.90;;;;;;4807278;29;93555;-33
2022/07/23 12:54:08;;;;;;;2.40;1.88;;;22.60;99.90;;;;;;4804417;29;93808;-32
2022/07/23 12:56:40;;;;;;;1.58;1.48;;;22.60;99.90;;;;;;4807804;29;93377;-31
2022/07/23 12:59:08;;;;;;;5.28;1.70;;;22.60;99.90;;;;;;4821891;29;94377;-33